Time;durP1;ratioP1;P1;durP2;ratioP2;P2;SDS_P1;SDS_P2;PMS_P1;PMS_P2;Temp;Humidity;BMP_temperature;BMP_pressure;BME280_temperature;BME280_humidity;BME280_pressure;Samples;Min_cycle;Max_cycle;Signal;HPM_P1;HPM_P2
2022/02/05 00:02:13;;;;;;;7.40;5.82;;;;;;;;;;5034382;28;20310;-50
2022/02/05 00:04:39;;;;;;;7.80;5.78;;;;;;;;;;5034670;28;20250;-50
2022/02/05 00:07:07;;;;;;;7.70;5.53;;;;;;;;;;5034309;28;20609;-50
2022/02/05 00:12:32;;;;;;;6.53;5.93;;;;;;;;;;5033397;28;20171;-52
2022/02/05 00:39:26;;;;;;;7.00;5.03;;;;;;;;;;5033100;28;20578;-49
2022/02/05 00:42:05;;;;;;;6.80;5.55;;;;;;;;;;5032074;28;20221;-50
2022/02/05 00:44:31;;;;;;;5.63;4.70;;;;;;;;;;5032562;28;20233;-49
2022/02/05 00:46:58;;;;;;;4.90;4.20;;;;;;;;;;5033065;28;20172;-49
2022/02/05 00:49:24;;;;;;;7.15;5.45;;;;;;;;;;5032734;28;20422;-49
2022/02/05 00:51:56;;;;;;;8.70;5.53;;;;;;;;;;5032857;28;20237;-49
2022/02/05 00:54:25;;;;;;;7.18;5.75;;;;;;;;;;5032891;28;20395;-49
2022/02/05 00:59:17;;;;;;;6.37;5.70;;;;;;;;;;5032627;28;20210;-49
2022/02/05 01:01:44;;;;;;;5.93;5.32;;;;;;;;;;5032619;28;20421;-49
2022/02/05 01:04:10;;;;;;;9.55;5.63;;;;;;;;;;5032717;28;20168;-49
2022/02/05 01:06:36;;;;;;;11.00;5.93;;;;;;;;;;5032455;28;20548;-49
2022/02/05 01:09:06;;;;;;;8.57;5.85;;;;;;;;;;5032324;28;20191;-49
2022/02/05 01:11:32;;;;;;;7.22;5.55;;;;;;;;;;5032609;28;20191;-49
2022/02/05 01:14:00;;;;;;;6.63;5.95;;;;;;;;;;5032456;28;20179;-49
2022/02/05 01:16:50;;;;;;;7.65;5.50;;;;;;;;;;5032481;28;20191;-49
2022/02/05 01:19:27;;;;;;;7.70;5.13;;;;;;;;;;5030233;28;20203;-50
2022/02/05 01:21:56;;;;;;;9.65;5.05;;;;;;;;;;5032336;28;20199;-49
2022/02/05 01:24:26;;;;;;;10.93;6.05;;;;;;;;;;5032370;28;20247;-49
2022/02/05 01:27:02;;;;;;;6.28;5.18;;;;;;;;;;5032286;28;20578;-49
2022/02/05 01:29:44;;;;;;;6.28;4.68;;;;;;;;;;5031787;28;20753;-52
2022/02/05 01:32:16;;;;;;;8.77;5.78;;;;;;;;;;5032225;28;20163;-49
2022/02/05 01:34:53;;;;;;;6.50;5.25;;;;;;;;;;5031376;28;20167;-49
2022/02/05 01:50:58;;;;;;;5.80;4.30;;;;;;;;;;5032049;28;20175;-49
2022/02/05 01:58:55;;;;;;;7.03;3.85;;;;;;;;;;5032157;28;20223;-49
2022/02/05 02:12:10;;;;;;;7.55;4.30;;;;;;;;;;5031654;28;20731;-48
2022/02/05 02:30:31;;;;;;;6.47;4.70;;;;;;;;;;5000141;28;20201;-47
2022/02/05 02:33:10;;;;;;;6.72;4.75;;;;;;;;;;5031148;28;20259;-48
2022/02/05 02:35:40;;;;;;;13.25;5.70;;;;;;;;;;5031159;28;20182;-47
2022/02/05 02:38:11;;;;;;;8.23;5.15;;;;;;;;;;5031043;28;20255;-48
2022/02/05 02:40:54;;;;;;;10.30;4.68;;;;;;;;;;5030836;28;20631;-47
2022/02/05 02:43:25;;;;;;;9.00;5.60;;;;;;;;;;5030021;28;20210;-48
2022/02/05 02:45:51;;;;;;;8.77;5.10;;;;;;;;;;5031077;28;20194;-47
2022/02/05 02:48:17;;;;;;;15.73;5.30;;;;;;;;;;5030908;28;20663;-48
2022/02/05 02:58:59;;;;;;;10.40;4.65;;;;;;;;;;5030791;28;20196;-48
2022/02/05 03:01:25;;;;;;;6.00;4.57;;;;;;;;;;5034636;28;20197;-50
2022/02/05 03:03:51;;;;;;;10.02;5.10;;;;;;;;;;5034772;28;20202;-50
2022/02/05 03:06:17;;;;;;;8.30;4.45;;;;;;;;;;5035099;28;20163;-47
2022/02/05 03:08:44;;;;;;;8.47;4.27;;;;;;;;;;5034820;28;20198;-47
2022/02/05 03:11:11;;;;;;;8.77;3.70;;;;;;;;;;5034686;28;20397;-47
2022/02/05 03:13:37;;;;;;;7.50;4.55;;;;;;;;;;5033724;28;20724;-47
2022/02/05 03:16:03;;;;;;;6.05;4.03;;;;;;;;;;5034682;28;20207;-47
2022/02/05 03:18:33;;;;;;;6.88;4.35;;;;;;;;;;5034750;28;20663;-47
2022/02/05 03:20:59;;;;;;;7.05;4.05;;;;;;;;;;5034703;28;20222;-47
2022/02/05 03:23:25;;;;;;;9.00;4.90;;;;;;;;;;5034775;28;20199;-48
2022/02/05 03:25:51;;;;;;;6.90;4.33;;;;;;;;;;5034790;28;20445;-49
2022/02/05 03:28:17;;;;;;;7.70;4.40;;;;;;;;;;5034372;28;20425;-48
2022/02/05 03:30:43;;;;;;;9.35;4.00;;;;;;;;;;5034362;28;20818;-48
2022/02/05 03:33:09;;;;;;;9.75;3.78;;;;;;;;;;5034389;28;20200;-47
2022/02/05 03:35:36;;;;;;;11.23;4.33;;;;;;;;;;5033988;28;20206;-47
2022/02/05 03:38:02;;;;;;;6.50;4.40;;;;;;;;;;5033553;28;20413;-49
2022/02/05 03:40:29;;;;;;;11.65;3.97;;;;;;;;;;5033967;28;20643;-49
2022/02/05 03:42:55;;;;;;;6.22;4.07;;;;;;;;;;5033159;28;20206;-47
2022/02/05 03:45:21;;;;;;;7.90;4.20;;;;;;;;;;5034077;28;20545;-47
2022/02/05 03:47:50;;;;;;;4.63;4.10;;;;;;;;;;5034126;28;20452;-47
2022/02/05 03:50:16;;;;;;;12.15;4.80;;;;;;;;;;5033870;28;20936;-47
2022/02/05 03:52:43;;;;;;;4.47;3.23;;;;;;;;;;5034026;28;20199;-48
2022/02/05 03:55:10;;;;;;;6.05;3.55;;;;;;;;;;5034041;28;20426;-47
2022/02/05 03:57:37;;;;;;;8.68;4.28;;;;;;;;;;5033862;28;20199;-47
2022/02/05 04:00:07;;;;;;;6.78;4.28;;;;;;;;;;5033644;28;20253;-47
2022/02/05 04:02:34;;;;;;;6.68;4.15;;;;;;;;;;5033779;28;20191;-47
2022/02/05 04:05:00;;;;;;;5.97;3.75;;;;;;;;;;5033821;28;20209;-49
2022/02/05 04:07:29;;;;;;;8.20;3.35;;;;;;;;;;5033821;28;20639;-48
2022/02/05 04:09:59;;;;;;;6.72;3.85;;;;;;;;;;5033380;28;20569;-47
2022/02/05 04:17:55;;;;;;;7.57;3.75;;;;;;;;;;5033581;28;20182;-47
2022/02/05 04:20:21;;;;;;;4.05;3.22;;;;;;;;;;5033231;28;20188;-47
2022/02/05 04:22:47;;;;;;;5.00;3.20;;;;;;;;;;5032387;28;20565;-48
2022/02/05 04:25:13;;;;;;;8.48;4.10;;;;;;;;;;5027811;28;20434;-48
2022/02/05 04:27:39;;;;;;;8.20;4.53;;;;;;;;;;5028977;28;20179;-50
2022/02/05 04:30:05;;;;;;;9.20;3.23;;;;;;;;;;5027648;28;20460;-47
2022/02/05 04:32:32;;;;;;;9.15;3.75;;;;;;;;;;5029194;28;20437;-48
2022/02/05 04:34:58;;;;;;;5.07;4.03;;;;;;;;;;5029195;28;20179;-47
2022/02/05 04:37:28;;;;;;;6.35;3.33;;;;;;;;;;5033450;28;20176;-47
2022/02/05 04:40:15;;;;;;;7.70;3.67;;;;;;;;;;5033095;28;20183;-47
2022/02/05 04:42:50;;;;;;;14.20;4.53;;;;;;;;;;5033302;28;20192;-47
2022/02/05 04:50:53;;;;;;;5.75;3.33;;;;;;;;;;5032951;28;20179;-47
2022/02/05 04:53:34;;;;;;;7.35;3.78;;;;;;;;;;5032808;28;20547;-47
2022/02/05 05:04:51;;;;;;;8.43;3.50;;;;;;;;;;5032491;28;20202;-47
2022/02/05 05:09:34;;;;;;;15.02;3.58;;;;;;;;;;5032496;28;20728;-49
2022/02/05 05:12:22;;;;;;;8.73;3.38;;;;;;;;;;5032542;28;20176;-47
2022/02/05 05:20:17;;;;;;;9.32;3.63;;;;;;;;;;5032182;28;20282;-49
2022/02/05 05:22:43;;;;;;;12.48;2.70;;;;;;;;;;5031349;28;20283;-47
2022/02/05 05:25:09;;;;;;;11.23;3.37;;;;;;;;;;5032349;28;20250;-47
2022/02/05 05:27:37;;;;;;;10.65;2.88;;;;;;;;;;5032249;28;20494;-47
2022/02/05 05:30:05;;;;;;;6.35;3.72;;;;;;;;;;5031836;28;20290;-48
2022/02/05 05:32:31;;;;;;;5.95;3.80;;;;;;;;;;5032073;28;20171;-47
2022/02/05 05:34:57;;;;;;;6.67;3.57;;;;;;;;;;5032060;28;20261;-48
2022/02/05 05:37:24;;;;;;;5.33;3.10;;;;;;;;;;5031012;28;20940;-50
2022/02/05 05:39:50;;;;;;;10.45;3.75;;;;;;;;;;5031762;28;20472;-47
2022/02/05 05:42:24;;;;;;;11.70;5.53;;;;;;;;;;5031873;28;20198;-48
2022/02/05 05:45:02;;;;;;;11.32;3.40;;;;;;;;;;5031942;28;20239;-47
2022/02/05 05:50:05;;;;;;;5.38;3.20;;;;;;;;;;5031795;28;20290;-47
2022/02/05 05:52:31;;;;;;;10.52;3.30;;;;;;;;;;5031802;28;20167;-48
2022/02/05 05:54:58;;;;;;;6.68;3.92;;;;;;;;;;5031765;28;20635;-48
2022/02/05 05:57:24;;;;;;;8.77;3.83;;;;;;;;;;5031757;28;20213;-47
2022/02/05 05:59:50;;;;;;;8.93;3.45;;;;;;;;;;5031262;28;20206;-47
2022/02/05 06:02:16;;;;;;;19.10;4.20;;;;;;;;;;5031524;28;20203;-47
2022/02/05 06:04:42;;;;;;;11.50;4.23;;;;;;;;;;5030789;28;20175;-47
2022/02/05 06:07:09;;;;;;;9.40;3.70;;;;;;;;;;5031734;28;20911;-49
2022/02/05 06:09:41;;;;;;;12.63;4.32;;;;;;;;;;5031366;28;21009;-47
2022/02/05 06:12:08;;;;;;;11.90;5.63;;;;;;;;;;5031546;28;20523;-47
2022/02/05 06:14:34;;;;;;;5.07;3.40;;;;;;;;;;5031528;28;20178;-47
2022/02/05 06:17:06;;;;;;;6.83;3.77;;;;;;;;;;5031654;28;20167;-47
2022/02/05 06:19:32;;;;;;;9.48;3.35;;;;;;;;;;5031381;28;20820;-48
2022/02/05 06:21:58;;;;;;;4.43;3.27;;;;;;;;;;5031348;28;20226;-47
2022/02/05 06:24:24;;;;;;;6.38;3.72;;;;;;;;;;5031402;28;20402;-47
2022/02/05 06:26:50;;;;;;;7.57;3.50;;;;;;;;;;5031259;28;20190;-47
2022/02/05 06:29:16;;;;;;;7.50;3.80;;;;;;;;;;5030826;28;20446;-48
2022/02/05 06:31:42;;;;;;;13.57;4.10;;;;;;;;;;5032565;28;20414;-49
2022/02/05 06:34:08;;;;;;;7.00;3.53;;;;;;;;;;5032277;28;20408;-49
2022/02/05 06:36:34;;;;;;;7.43;4.30;;;;;;;;;;5031424;28;20780;-50
2022/02/05 06:39:00;;;;;;;10.77;3.90;;;;;;;;;;5031175;28;20442;-49
2022/02/05 06:41:26;;;;;;;8.33;3.50;;;;;;;;;;5032147;28;20587;-49
2022/02/05 06:43:52;;;;;;;6.07;3.73;;;;;;;;;;5032116;28;20508;-49
2022/02/05 06:46:18;;;;;;;5.60;3.80;;;;;;;;;;5032271;28;20401;-49
2022/02/05 06:48:44;;;;;;;6.80;3.50;;;;;;;;;;5032045;28;20415;-49
2022/02/05 06:51:10;;;;;;;14.23;3.63;;;;;;;;;;5032006;28;20398;-49
2022/02/05 06:53:36;;;;;;;7.97;4.57;;;;;;;;;;5031971;28;20493;-49
2022/02/05 06:56:02;;;;;;;9.27;4.00;;;;;;;;;;5031840;28;20406;-49
2022/02/05 06:58:29;;;;;;;7.13;3.67;;;;;;;;;;5031784;28;20571;-50
2022/02/05 07:00:55;;;;;;;8.80;4.25;;;;;;;;;;5031735;28;21084;-49
2022/02/05 07:03:22;;;;;;;23.93;4.13;;;;;;;;;;5031818;28;20286;-49
2022/02/05 07:05:48;;;;;;;15.07;3.97;;;;;;;;;;5030763;28;20529;-50
2022/02/05 07:08:14;;;;;;;6.35;4.15;;;;;;;;;;5031758;28;20556;-49
2022/02/05 07:10:40;;;;;;;13.60;4.35;;;;;;;;;;5031208;28;20251;-49
2022/02/05 07:15:40;;;;;;;6.30;4.13;;;;;;;;;;5031698;28;20448;-50
2022/02/05 07:18:33;;;;;;;10.77;4.05;;;;;;;;;;5031545;28;20174;-50
2022/02/05 07:29:13;;;;;;;6.63;4.25;;;;;;;;;;5031083;28;20209;-49
2022/02/05 07:31:42;;;;;;;18.08;3.80;;;;;;;;;;5031504;28;20251;-49
2022/02/05 07:34:08;;;;;;;10.05;3.88;;;;;;;;;;5030127;28;20180;-48
2022/02/05 07:36:34;;;;;;;7.50;3.92;;;;;;;;;;5028303;28;20179;-50
2022/02/05 07:39:00;;;;;;;10.80;4.30;;;;;;;;;;5031262;28;20192;-49
2022/02/05 07:41:26;;;;;;;7.50;3.73;;;;;;;;;;5030869;28;20539;-50
2022/02/05 07:43:52;;;;;;;8.00;4.80;;;;;;;;;;5030160;28;20458;-49
2022/02/05 07:46:18;;;;;;;14.85;3.97;;;;;;;;;;5030994;28;20603;-49
2022/02/05 07:48:44;;;;;;;8.40;4.30;;;;;;;;;;5033870;28;20253;-49
2022/02/05 07:51:10;;;;;;;14.32;5.00;;;;;;;;;;5034189;28;20608;-49
2022/02/05 07:53:36;;;;;;;8.00;4.57;;;;;;;;;;5034584;28;20225;-49
2022/02/05 07:56:03;;;;;;;10.40;3.93;;;;;;;;;;5034466;28;20599;-48
2022/02/05 07:58:30;;;;;;;10.90;4.63;;;;;;;;;;5034497;28;20442;-49
2022/02/05 08:00:56;;;;;;;8.85;3.25;;;;;;;;;;5034060;28;20183;-49
2022/02/05 08:03:22;;;;;;;6.60;3.47;;;;;;;;;;5034318;28;20199;-50
2022/02/05 08:05:48;;;;;;;4.53;3.50;;;;;;;;;;5034356;28;20187;-49
2022/02/05 08:08:17;;;;;;;4.65;3.70;;;;;;;;;;5032229;28;20917;-49
2022/02/05 08:10:54;;;;;;;15.10;4.10;;;;;;;;;;5033864;28;20654;-49
2022/02/05 08:13:21;;;;;;;5.40;3.08;;;;;;;;;;5033957;28;20631;-49
2022/02/05 08:15:52;;;;;;;5.90;3.70;;;;;;;;;;5033980;28;20167;-49
2022/02/05 08:18:19;;;;;;;13.77;3.65;;;;;;;;;;5033917;28;20198;-49
2022/02/05 08:20:45;;;;;;;13.43;4.03;;;;;;;;;;5033447;28;20167;-50
2022/02/05 08:23:11;;;;;;;9.60;4.00;;;;;;;;;;5033428;28;20195;-50
2022/02/05 08:25:36;;;;;;;5.93;3.20;;;;;;;;;;5033779;28;20513;-50
2022/02/05 08:28:03;;;;;;;7.67;4.40;;;;;;;;;;5033639;28;20402;-49
2022/02/05 08:30:29;;;;;;;9.32;4.70;;;;;;;;;;5033334;28;20914;-49
2022/02/05 08:32:58;;;;;;;9.18;4.18;;;;;;;;;;5033537;28;20172;-48
2022/02/05 08:35:24;;;;;;;10.05;4.70;;;;;;;;;;5033608;28;20230;-49
2022/02/05 08:37:52;;;;;;;4.30;3.58;;;;;;;;;;5032478;28;20186;-49
2022/02/05 08:40:18;;;;;;;11.52;4.65;;;;;;;;;;5033099;28;20219;-50
2022/02/05 08:42:44;;;;;;;8.90;4.40;;;;;;;;;;5033284;28;20238;-49
2022/02/05 08:45:10;;;;;;;10.30;4.00;;;;;;;;;;5033214;28;20494;-49
2022/02/05 08:47:36;;;;;;;14.20;4.00;;;;;;;;;;5033300;28;20168;-49
2022/02/05 08:50:03;;;;;;;7.50;3.60;;;;;;;;;;5033033;28;20250;-49
2022/02/05 08:52:29;;;;;;;7.03;3.50;;;;;;;;;;5033162;28;20260;-49
2022/02/05 08:54:57;;;;;;;10.50;3.78;;;;;;;;;;5033266;28;20523;-49
2022/02/05 08:57:23;;;;;;;9.15;4.78;;;;;;;;;;5033325;28;20222;-50
2022/02/05 08:59:57;;;;;;;6.22;4.40;;;;;;;;;;5033070;28;20629;-49
2022/02/05 09:02:34;;;;;;;4.60;3.38;;;;;;;;;;5033164;28;20187;-50
2022/02/05 09:05:13;;;;;;;11.10;4.15;;;;;;;;;;5033147;28;20167;-49
2022/02/05 09:07:41;;;;;;;4.63;3.50;;;;;;;;;;5032244;28;20172;-49
2022/02/05 09:10:25;;;;;;;7.33;3.63;;;;;;;;;;5032490;28;20188;-49
2022/02/05 09:15:33;;;;;;;10.88;3.90;;;;;;;;;;5029924;28;20234;-48
2022/02/05 09:17:59;;;;;;;8.73;3.67;;;;;;;;;;5032355;28;20702;-49
2022/02/05 09:20:26;;;;;;;8.70;3.93;;;;;;;;;;5032698;28;20438;-49
2022/02/05 09:22:52;;;;;;;12.10;4.13;;;;;;;;;;5032722;28;20502;-50
2022/02/05 09:25:21;;;;;;;10.97;4.23;;;;;;;;;;5032693;28;20466;-50
2022/02/05 09:27:47;;;;;;;6.30;4.30;;;;;;;;;;5033030;28;20416;-49
2022/02/05 09:30:16;;;;;;;4.43;3.97;;;;;;;;;;5032756;28;20467;-50
2022/02/05 09:32:42;;;;;;;5.70;4.40;;;;;;;;;;5033096;28;20416;-50
2022/02/05 09:35:10;;;;;;;6.77;4.17;;;;;;;;;;5032890;28;20406;-49
2022/02/05 09:37:36;;;;;;;5.67;4.03;;;;;;;;;;5031558;28;20426;-49
2022/02/05 09:40:03;;;;;;;6.80;4.30;;;;;;;;;;5032303;28;20809;-49
2022/02/05 09:42:29;;;;;;;13.93;4.90;;;;;;;;;;5032366;28;20453;-50
2022/02/05 09:44:55;;;;;;;8.10;4.40;;;;;;;;;;5032861;28;20406;-49
2022/02/05 09:47:21;;;;;;;8.30;5.97;;;;;;;;;;5032817;28;20539;-49
2022/02/05 09:49:50;;;;;;;11.10;5.57;;;;;;;;;;5031217;28;20433;-49
2022/02/05 09:52:24;;;;;;;6.13;4.73;;;;;;;;;;5032442;28;20897;-50
2022/02/05 09:54:51;;;;;;;7.53;4.93;;;;;;;;;;5032848;28;20439;-51
2022/02/05 09:57:19;;;;;;;11.73;6.70;;;;;;;;;;5031798;28;20406;-50
2022/02/05 09:59:54;;;;;;;11.00;5.50;;;;;;;;;;5031743;28;20422;-50
2022/02/05 10:02:31;;;;;;;8.43;5.80;;;;;;;;;;5031675;28;20468;-50
2022/02/05 10:04:58;;;;;;;13.67;5.40;;;;;;;;;;5031881;28;20398;-49
2022/02/05 10:07:28;;;;;;;9.37;5.00;;;;;;;;;;5030806;28;20427;-51
2022/02/05 10:10:01;;;;;;;12.03;5.03;;;;;;;;;;5031070;28;20495;-50
2022/02/05 10:12:27;;;;;;;14.53;5.30;;;;;;;;;;5032038;28;20476;-50
2022/02/05 10:14:55;;;;;;;10.73;5.57;;;;;;;;;;5032908;28;20474;-49
2022/02/05 10:17:36;;;;;;;8.60;4.93;;;;;;;;;;5032614;28;20492;-50
2022/02/05 10:20:03;;;;;;;7.27;4.97;;;;;;;;;;5032009;28;20446;-49
2022/02/05 10:22:35;;;;;;;8.43;5.20;;;;;;;;;;5032172;28;20954;-50
2022/02/05 10:25:06;;;;;;;7.80;5.00;;;;;;;;;;5014864;28;20449;-50
2022/02/05 10:27:42;;;;;;;5.83;4.27;;;;;;;;;;5032063;28;20445;-49
2022/02/05 10:30:10;;;;;;;15.67;5.10;;;;;;;;;;5031274;28;20441;-50
2022/02/05 10:32:41;;;;;;;12.97;4.40;;;;;;;;;;5031450;28;20449;-50
2022/02/05 10:37:51;;;;;;;6.37;3.63;;;;;;;;;;5030580;28;20440;-50
2022/02/05 10:40:41;;;;;;;5.70;3.67;;;;;;;;;;5030930;28;20428;-50
2022/02/05 10:43:08;;;;;;;6.63;4.00;;;;;;;;;;5031115;28;20961;-50
2022/02/05 10:45:42;;;;;;;11.40;4.13;;;;;;;;;;5031618;28;20398;-50
2022/02/05 10:48:08;;;;;;;12.83;4.50;;;;;;;;;;5031229;28;20405;-50
2022/02/05 10:50:35;;;;;;;9.30;4.30;;;;;;;;;;5031107;28;20398;-50
2022/02/05 10:53:17;;;;;;;9.00;4.20;;;;;;;;;;5031250;28;20409;-50
2022/02/05 10:55:55;;;;;;;10.87;4.47;;;;;;;;;;5031306;28;20833;-51
2022/02/05 10:58:40;;;;;;;4.37;3.70;;;;;;;;;;5031132;28;20545;-50
2022/02/05 11:07:05;;;;;;;7.00;3.97;;;;;;;;;;5029785;28;20453;-52
2022/02/05 11:09:31;;;;;;;12.43;3.70;;;;;;;;;;5029645;28;20447;-52
2022/02/05 11:12:20;;;;;;;15.63;3.63;;;;;;;;;;5030715;28;20402;-53
2022/02/05 11:20:24;;;;;;;6.63;3.40;;;;;;;;;;5030608;28;20941;-52
2022/02/05 11:22:50;;;;;;;7.70;3.13;;;;;;;;;;5034360;28;20486;-52
2022/02/05 11:25:16;;;;;;;4.73;3.17;;;;;;;;;;5034480;28;20495;-52
2022/02/05 11:27:43;;;;;;;5.53;2.93;;;;;;;;;;5034465;28;20458;-52
2022/02/05 11:30:39;;;;;;;6.90;3.17;;;;;;;;;;5034121;28;21201;-53
2022/02/05 11:33:07;;;;;;;6.40;3.27;;;;;;;;;;5034560;28;20424;-53
2022/02/05 11:35:58;;;;;;;3.53;2.37;;;;;;;;;;5034374;28;20416;-52
2022/02/05 11:38:34;;;;;;;4.70;2.43;;;;;;;;;;5034008;28;20443;-53
2022/02/05 11:41:02;;;;;;;5.17;2.90;;;;;;;;;;5034147;28;20393;-52
2022/02/05 11:43:31;;;;;;;8.53;2.73;;;;;;;;;;5034078;28;20463;-52
2022/02/05 11:46:21;;;;;;;4.97;2.80;;;;;;;;;;5034210;28;20415;-53
2022/02/05 11:48:50;;;;;;;4.77;2.40;;;;;;;;;;5027325;28;20464;-53
2022/02/05 11:51:17;;;;;;;7.83;2.60;;;;;;;;;;5032934;28;20409;-53
2022/02/05 11:53:55;;;;;;;11.37;3.10;;;;;;;;;;5033580;28;20409;-53
2022/02/05 11:56:34;;;;;;;6.30;3.47;;;;;;;;;;5034098;28;20459;-53
2022/02/05 11:59:01;;;;;;;10.40;3.30;;;;;;;;;;5033375;28;20428;-52
2022/02/05 12:01:37;;;;;;;10.70;2.97;;;;;;;;;;5033277;28;20770;-51
2022/02/05 12:04:14;;;;;;;5.83;2.97;;;;;;;;;;5033762;28;20825;-53
2022/02/05 12:07:05;;;;;;;7.50;3.07;;;;;;;;;;5032916;28;20432;-52
2022/02/05 12:09:35;;;;;;;7.17;2.83;;;;;;;;;;5033507;28;20429;-53
2022/02/05 12:12:20;;;;;;;5.00;2.20;;;;;;;;;;5033757;28;20450;-52
2022/02/05 12:15:04;;;;;;;7.20;3.03;;;;;;;;;;5033728;28;20844;-53
2022/02/05 12:17:52;;;;;;;9.10;2.90;;;;;;;;;;5033580;28;20407;-52
2022/02/05 12:20:23;;;;;;;10.50;3.00;;;;;;;;;;5033467;28;20950;-52
2022/02/05 12:23:28;;;;;;;9.17;2.37;;;;;;;;;;5033234;28;20459;-52
2022/02/05 12:25:57;;;;;;;5.73;2.80;;;;;;;;;;5033633;28;20434;-52
2022/02/05 12:28:29;;;;;;;9.67;2.90;;;;;;;;;;5033783;28;20422;-52
2022/02/05 12:30:56;;;;;;;9.30;2.97;;;;;;;;;;5034124;28;20768;-51
2022/02/05 12:33:22;;;;;;;6.70;2.60;;;;;;;;;;5032530;28;20497;-52
2022/02/05 12:35:52;;;;;;;4.73;2.43;;;;;;;;;;5033489;28;20514;-51
2022/02/05 12:38:18;;;;;;;11.13;2.97;;;;;;;;;;5033724;28;20425;-52
2022/02/05 12:40:45;;;;;;;5.07;2.60;;;;;;;;;;5033927;28;20468;-51
2022/02/05 12:43:13;;;;;;;3.00;2.00;;;;;;;;;;5033693;28;20537;-51
2022/02/05 12:45:54;;;;;;;12.30;3.20;;;;;;;;;;5033636;28;20467;-52
2022/02/05 12:48:23;;;;;;;5.40;2.87;;;;;;;;;;5033602;28;20414;-52
2022/02/05 12:50:49;;;;;;;6.57;3.13;;;;;;;;;;5033395;28;20405;-52
2022/02/05 12:53:16;;;;;;;5.87;2.87;;;;;;;;;;5033801;28;20958;-52
2022/02/05 12:55:46;;;;;;;7.67;3.00;;;;;;;;;;5033122;28;20407;-52
2022/02/05 12:58:15;;;;;;;4.73;2.20;;;;;;;;;;5033002;28;20429;-52
2022/02/05 13:00:41;;;;;;;8.43;3.47;;;;;;;;;;5033224;28;20406;-52
2022/02/05 13:03:26;;;;;;;12.10;3.50;;;;;;;;;;5033179;28;20457;-52
2022/02/05 13:05:52;;;;;;;3.20;2.50;;;;;;;;;;5032419;28;20479;-51
2022/02/05 13:08:18;;;;;;;6.40;2.80;;;;;;;;;;5032972;28;20918;-51
2022/02/05 13:10:45;;;;;;;6.20;2.97;;;;;;;;;;5032948;28;20401;-52
2022/02/05 13:13:12;;;;;;;5.33;2.50;;;;;;;;;;5032959;28;20412;-52
2022/02/05 13:15:39;;;;;;;6.93;2.70;;;;;;;;;;5032844;28;20810;-53
2022/02/05 13:18:21;;;;;;;14.63;3.43;;;;;;;;;;5032708;28;20402;-52
2022/02/05 13:26:16;;;;;;;8.07;2.60;;;;;;;;;;5031973;28;20471;-52
2022/02/05 13:28:52;;;;;;;4.80;2.50;;;;;;;;;;5032584;28;20520;-51
2022/02/05 13:34:27;;;;;;;6.07;2.80;;;;;;;;;;5032645;28;20445;-53
2022/02/05 13:37:01;;;;;;;9.87;3.00;;;;;;;;;;4997865;28;20427;-52
2022/02/05 13:42:09;;;;;;;7.43;2.70;;;;;;;;;;5012456;28;20412;-52
2022/02/05 13:45:03;;;;;;;4.23;2.90;;;;;;;;;;5011484;28;20481;-52
2022/02/05 13:47:29;;;;;;;4.40;2.53;;;;;;;;;;5012037;28;20408;-52
2022/02/05 13:50:12;;;;;;;3.03;2.73;;;;;;;;;;5010919;28;20413;-52
2022/02/05 13:52:44;;;;;;;6.00;2.97;;;;;;;;;;5011641;28;20487;-52
2022/02/05 13:55:14;;;;;;;6.90;3.10;;;;;;;;;;5012158;28;20395;-52
2022/02/05 13:57:59;;;;;;;5.17;3.00;;;;;;;;;;5011792;28;20445;-52
2022/02/05 14:00:36;;;;;;;5.73;2.83;;;;;;;;;;5011873;28;20398;-52
2022/02/05 14:03:05;;;;;;;4.23;2.43;;;;;;;;;;5011664;28;20456;-51
2022/02/05 14:05:32;;;;;;;4.80;2.50;;;;;;;;;;5017298;28;20439;-51
2022/02/05 14:07:58;;;;;;;7.83;2.27;;;;;;;;;;5030995;28;20436;-52
2022/02/05 14:10:24;;;;;;;9.73;3.10;;;;;;;;;;5031781;28;20424;-52
2022/02/05 14:12:57;;;;;;;6.10;2.40;;;;;;;;;;5031757;28;20408;-52
2022/02/05 14:15:24;;;;;;;5.03;2.60;;;;;;;;;;5031669;28;20488;-52
2022/02/05 14:18:14;;;;;;;7.47;2.47;;;;;;;;;;5031528;28;20437;-52
2022/02/05 14:21:07;;;;;;;3.27;2.30;;;;;;;;;;5031594;28;20816;-52
2022/02/05 14:23:33;;;;;;;5.40;2.47;;;;;;;;;;5028451;28;20460;-52
2022/02/05 14:28:44;;;;;;;4.37;2.13;;;;;;;;;;5030912;28;20465;-51
2022/02/05 14:31:15;;;;;;;4.90;2.43;;;;;;;;;;5029590;28;21052;-52
2022/02/05 14:36:38;;;;;;;4.27;2.37;;;;;;;;;;5029680;28;20515;-52
2022/02/05 14:41:50;;;;;;;5.07;2.33;;;;;;;;;;5031712;28;20455;-52
2022/02/05 14:44:16;;;;;;;2.90;1.97;;;;;;;;;;5031328;28;20453;-52
2022/02/05 14:46:43;;;;;;;3.30;2.50;;;;;;;;;;5031578;28;20417;-52
2022/02/05 14:49:09;;;;;;;3.93;2.40;;;;;;;;;;5031168;28;20486;-51
2022/02/05 14:51:35;;;;;;;6.60;2.80;;;;;;;;;;5030710;28;20497;-52
2022/02/05 14:54:01;;;;;;;5.10;2.70;;;;;;;;;;5031250;28;20415;-52
2022/02/05 14:56:28;;;;;;;5.80;2.13;;;;;;;;;;5037515;28;20476;-51
2022/02/05 14:58:54;;;;;;;3.50;2.30;;;;;;;;;;5037852;28;20450;-51
2022/02/05 15:01:23;;;;;;;3.83;2.70;;;;;;;;;;5038039;28;20439;-52
2022/02/05 15:03:49;;;;;;;7.33;2.57;;;;;;;;;;5037723;28;20815;-52
2022/02/05 15:06:21;;;;;;;3.50;3.13;;;;;;;;;;5036884;28;20442;-51
2022/02/05 15:08:47;;;;;;;8.20;2.80;;;;;;;;;;5037898;28;20422;-52
2022/02/05 15:11:14;;;;;;;6.70;3.77;;;;;;;;;;5038373;28;20891;-52
2022/02/05 15:13:40;;;;;;;6.37;2.77;;;;;;;;;;5037884;28;20424;-52
2022/02/05 15:16:09;;;;;;;7.53;2.20;;;;;;;;;;5039203;28;20418;-52
2022/02/05 15:18:35;;;;;;;6.93;2.77;;;;;;;;;;5037848;28;20421;-51
2022/02/05 15:21:01;;;;;;;5.47;2.70;;;;;;;;;;5037566;28;20572;-52
2022/02/05 15:23:27;;;;;;;4.40;3.20;;;;;;;;;;5037667;28;20450;-52
2022/02/05 15:25:53;;;;;;;7.57;2.33;;;;;;;;;;5037811;28;20400;-51
2022/02/05 15:28:19;;;;;;;3.93;2.80;;;;;;;;;;5037701;28;20427;-52
2022/02/05 15:30:45;;;;;;;5.00;3.30;;;;;;;;;;5037704;28;20491;-51
2022/02/05 15:33:14;;;;;;;7.87;2.63;;;;;;;;;;5020589;28;20421;-51
2022/02/05 15:35:40;;;;;;;7.30;2.83;;;;;;;;;;5037852;28;20436;-51
2022/02/05 15:38:15;;;;;;;5.83;2.00;;;;;;;;;;5038508;28;20794;-51
2022/02/05 15:46:12;;;;;;;4.10;2.50;;;;;;;;;;5038211;28;20409;-52
2022/02/05 15:48:38;;;;;;;7.30;2.37;;;;;;;;;;5038094;28;20447;-51
2022/02/05 15:51:05;;;;;;;4.33;2.10;;;;;;;;;;5038284;28;20738;-52
2022/02/05 15:53:35;;;;;;;4.67;2.40;;;;;;;;;;5038050;28;20413;-51
2022/02/05 15:56:03;;;;;;;4.97;2.17;;;;;;;;;;5037616;28;20412;-51
2022/02/05 15:58:37;;;;;;;3.57;2.17;;;;;;;;;;5038182;28;20435;-52
2022/02/05 16:01:03;;;;;;;5.40;2.13;;;;;;;;;;5020867;28;20469;-50
2022/02/05 16:03:29;;;;;;;3.53;2.43;;;;;;;;;;5018469;28;20824;-51
2022/02/05 16:05:56;;;;;;;3.00;2.00;;;;;;;;;;5020712;28;20435;-52
2022/02/05 16:08:21;;;;;;;5.10;1.90;;;;;;;;;;5034306;28;20415;-51
2022/02/05 16:10:49;;;;;;;4.07;2.10;;;;;;;;;;5034334;28;20552;-51
2022/02/05 16:13:15;;;;;;;3.83;2.30;;;;;;;;;;5034674;28;20423;-51
2022/02/05 16:15:42;;;;;;;4.07;1.90;;;;;;;;;;5034960;28;20412;-51
2022/02/05 16:18:08;;;;;;;2.10;1.90;;;;;;;;;;5034474;28;20423;-51
2022/02/05 16:20:34;;;;;;;3.07;1.83;;;;;;;;;;5034431;28;20414;-52
2022/02/05 16:22:59;;;;;;;2.60;1.80;;;;;;;;;;5034549;28;20943;-51
2022/02/05 16:25:25;;;;;;;2.50;2.30;;;;;;;;;;5034330;28;20399;-51
2022/02/05 16:27:52;;;;;;;8.67;2.77;;;;;;;;;;5033566;28;20406;-51
2022/02/05 16:30:23;;;;;;;10.77;2.10;;;;;;;;;;5027575;28;20458;-52
2022/02/05 16:32:59;;;;;;;10.43;2.53;;;;;;;;;;5028932;28;20984;-51
2022/02/05 16:35:31;;;;;;;6.23;2.60;;;;;;;;;;5023246;28;20569;-51
2022/02/05 16:37:58;;;;;;;3.90;2.03;;;;;;;;;;5023948;28;20430;-51
2022/02/05 16:40:24;;;;;;;3.47;2.00;;;;;;;;;;5026748;28;20442;-51
2022/02/05 16:42:53;;;;;;;3.43;1.53;;;;;;;;;;5023487;28;20945;-51
2022/02/05 16:45:22;;;;;;;4.95;1.98;;;;;;;;;;5015158;28;20815;-52
2022/02/05 16:47:49;;;;;;;5.87;2.80;;;;;;;;;;5017863;28;20169;-51
2022/02/05 16:50:16;;;;;;;9.73;3.83;;;;;;;;;;5033274;28;21036;-51
2022/02/05 16:52:48;;;;;;;4.43;1.90;;;;;;;;;;5033865;28;20483;-51
2022/02/05 16:55:14;;;;;;;5.70;1.83;;;;;;;;;;5034546;28;20918;-53
2022/02/05 16:57:40;;;;;;;9.00;2.13;;;;;;;;;;5034264;28;20395;-51
2022/02/05 17:00:07;;;;;;;6.50;2.03;;;;;;;;;;5033850;28;20429;-51
2022/02/05 17:02:32;;;;;;;7.45;2.10;;;;;;;;;;5033624;28;20463;-51
2022/02/05 17:04:58;;;;;;;8.67;3.13;;;;;;;;;;5033420;28;20170;-50
2022/02/05 17:08:00;;;;;;;3.97;1.97;;;;;;;;;;5033773;28;20424;-51
2022/02/05 17:10:29;;;;;;;3.27;1.50;;;;;;;;;;5033949;28;20396;-51
2022/02/05 17:12:55;;;;;;;3.63;2.33;;;;;;;;;;5033966;28;20406;-51
2022/02/05 17:15:22;;;;;;;3.97;2.17;;;;;;;;;;5033897;28;20402;-51
2022/02/05 17:17:57;;;;;;;6.27;1.97;;;;;;;;;;5032909;28;20457;-51
2022/02/05 17:20:28;;;;;;;2.87;1.60;;;;;;;;;;5031592;28;20786;-51
2022/02/05 17:22:56;;;;;;;4.03;2.00;;;;;;;;;;5033309;28;20542;-51
2022/02/05 17:25:23;;;;;;;8.20;1.93;;;;;;;;;;5033438;28;20396;-52
2022/02/05 17:27:49;;;;;;;6.10;2.30;;;;;;;;;;5033289;28;20405;-51
2022/02/05 17:30:17;;;;;;;6.43;2.13;;;;;;;;;;5032869;28;20440;-51
2022/02/05 17:32:45;;;;;;;3.63;1.83;;;;;;;;;;5033075;28;20415;-50
2022/02/05 17:35:11;;;;;;;4.23;2.13;;;;;;;;;;5032875;28;20465;-51
2022/02/05 17:37:38;;;;;;;4.97;1.90;;;;;;;;;;5032085;28;20445;-51
2022/02/05 17:40:05;;;;;;;3.77;2.07;;;;;;;;;;5032672;28;20258;-51
2022/02/05 17:42:31;;;;;;;5.73;2.20;;;;;;;;;;5032398;28;20962;-51